sensor_id;sensor_type;location;lat;lon;timestamp;temperature;humidity
18408;DHT22;9330;52.210;21.174;2024-03-02T00:00:49;7.20;1.00
18408;DHT22;9330;52.210;21.174;2024-03-02T00:03:17;7.20;1.00
18408;DHT22;9330;52.210;21.174;2024-03-02T00:05:49;7.30;1.00
18408;DHT22;9330;52.210;21.174;2024-03-02T00:08:22;7.20;1.00
18408;DHT22;9330;52.210;21.174;2024-03-02T00:10:50;7.20;1.00
18408;DHT22;9330;52.210;21.174;2024-03-02T00:13:20;7.10;1.00
18408;DHT22;9330;52.210;21.174;2024-03-02T00:15:51;7.20;1.00
18408;DHT22;9330;52.210;21.174;2024-03-02T00:18:19;7.10;1.00
18408;DHT22;9330;52.210;21.174;2024-03-02T00:20:49;7.10;1.00
18408;DHT22;9330;52.210;21.174;2024-03-02T00:23:19;7.10;1.00
18408;DHT22;9330;52.210;21.174;2024-03-02T00:25:49;7.10;99.90
18408;DHT22;9330;52.210;21.174;2024-03-02T00:28:19;7.00;99.90
18408;DHT22;9330;52.210;21.174;2024-03-02T00:30:55;7.00;99.90
18408;DHT22;9330;52.210;21.174;2024-03-02T00:33:23;7.00;99.90
18408;DHT22;9330;52.210;21.174;2024-03-02T00:35:52;7.00;99.90
18408;DHT22;9330;52.210;21.174;2024-03-02T00:38:19;7.00;99.90
18408;DHT22;9330;52.210;21.174;2024-03-02T00:40:46;6.90;99.90
18408;DHT22;9330;52.210;21.174;2024-03-02T00:43:42;6.90;99.90
18408;DHT22;9330;52.210;21.174;2024-03-02T00:46:11;6.80;99.90
18408;DHT22;9330;52.210;21.174;2024-03-02T00:48:38;6.90;1.00
18408;DHT22;9330;52.210;21.174;2024-03-02T00:51:08;6.80;99.90
18408;DHT22;9330;52.210;21.174;2024-03-02T00:53:35;6.80;1.00
18408;DHT22;9330;52.210;21.174;2024-03-02T00:56:02;6.80;1.00
18408;DHT22;9330;52.210;21.174;2024-03-02T00:58:29;6.70;1.00
18408;DHT22;9330;52.210;21.174;2024-03-02T01:00:56;6.80;1.00
18408;DHT22;9330;52.210;21.174;2024-03-02T01:03:23;6.80;1.00
18408;DHT22;9330;52.210;21.174;2024-03-02T01:05:50;6.70;1.00
18408;DHT22;9330;52.210;21.174;2024-03-02T01:08:18;6.70;1.00
18408;DHT22;9330;52.210;21.174;2024-03-02T01:10:45;6.70;1.00
18408;DHT22;9330;52.210;21.174;2024-03-02T01:13:12;6.60;1.00
18408;DHT22;9330;52.210;21.174;2024-03-02T01:15:39;6.60;1.00
18408;DHT22;9330;52.210;21.174;2024-03-02T01:18:06;6.60;1.00
18408;DHT22;9330;52.210;21.174;2024-03-02T01:20:34;6.50;1.00
18408;DHT22;9330;52.210;21.174;2024-03-02T01:23:01;6.60;99.90
18408;DHT22;9330;52.210;21.174;2024-03-02T01:25:29;6.70;37.20
18408;DHT22;9330;52.210;21.174;2024-03-02T01:27:56;6.50;1.00
18408;DHT22;9330;52.210;21.174;2024-03-02T01:30:23;6.60;36.20
18408;DHT22;9330;52.210;21.174;2024-03-02T01:32:50;6.50;77.40
18408;DHT22;9330;52.210;21.174;2024-03-02T01:35:17;6.50;99.90
18408;DHT22;9330;52.210;21.174;2024-03-02T01:37:44;6.50;99.90
18408;DHT22;9330;52.210;21.174;2024-03-02T01:40:11;6.50;99.90
18408;DHT22;9330;52.210;21.174;2024-03-02T01:42:40;6.50;41.70
18408;DHT22;9330;52.210;21.174;2024-03-02T01:45:07;6.50;99.90
18408;DHT22;9330;52.210;21.174;2024-03-02T01:47:35;6.50;1.00
18408;DHT22;9330;52.210;21.174;2024-03-02T01:50:02;6.50;94.10
18408;DHT22;9330;52.210;21.174;2024-03-02T01:52:29;6.50;81.50
18408;DHT22;9330;52.210;21.174;2024-03-02T01:54:56;6.50;59.60
18408;DHT22;9330;52.210;21.174;2024-03-02T01:57:23;6.40;99.90
18408;DHT22;9330;52.210;21.174;2024-03-02T01:59:51;6.50;99.90
18408;DHT22;9330;52.210;21.174;2024-03-02T02:02:18;6.40;99.90
18408;DHT22;9330;52.210;21.174;2024-03-02T02:04:46;6.40;99.90
18408;DHT22;9330;52.210;21.174;2024-03-02T02:07:13;6.40;1.00
18408;DHT22;9330;52.210;21.174;2024-03-02T02:09:41;6.40;1.00
18408;DHT22;9330;52.210;21.174;2024-03-02T02:12:08;6.30;1.00
18408;DHT22;9330;52.210;21.174;2024-03-02T02:14:35;6.40;1.00
18408;DHT22;9330;52.210;21.174;2024-03-02T02:17:04;6.30;1.00
18408;DHT22;9330;52.210;21.174;2024-03-02T02:19:31;6.30;1.00
18408;DHT22;9330;52.210;21.174;2024-03-02T02:21:59;6.30;1.00
18408;DHT22;9330;52.210;21.174;2024-03-02T02:24:26;6.30;1.00
18408;DHT22;9330;52.210;21.174;2024-03-02T02:26:53;6.30;1.00
18408;DHT22;9330;52.210;21.174;2024-03-02T02:29:20;6.30;1.00
18408;DHT22;9330;52.210;21.174;2024-03-02T02:31:47;6.30;1.00
18408;DHT22;9330;52.210;21.174;2024-03-02T02:34:14;6.30;1.00
18408;DHT22;9330;52.210;21.174;2024-03-02T02:36:41;6.20;1.00
18408;DHT22;9330;52.210;21.174;2024-03-02T02:39:12;6.20;1.00
18408;DHT22;9330;52.210;21.174;2024-03-02T02:41:40;6.20;1.90
18408;DHT22;9330;52.210;21.174;2024-03-02T02:44:07;6.20;1.00
18408;DHT22;9330;52.210;21.174;2024-03-02T02:46:34;6.10;49.80
18408;DHT22;9330;52.210;21.174;2024-03-02T02:49:01;6.20;15.40
18408;DHT22;9330;52.210;21.174;2024-03-02T02:51:27;6.10;57.00
18408;DHT22;9330;52.210;21.174;2024-03-02T02:53:54;6.10;99.90
18408;DHT22;9330;52.210;21.174;2024-03-02T02:56:23;6.00;99.90
18408;DHT22;9330;52.210;21.174;2024-03-02T02:58:50;6.10;99.90
18408;DHT22;9330;52.210;21.174;2024-03-02T03:01:17;6.00;99.90
18408;DHT22;9330;52.210;21.174;2024-03-02T03:03:44;6.00;99.90
18408;DHT22;9330;52.210;21.174;2024-03-02T03:06:12;6.00;1.00
18408;DHT22;9330;52.210;21.174;2024-03-02T03:08:39;6.00;99.90
18408;DHT22;9330;52.210;21.174;2024-03-02T03:11:06;6.00;99.90
18408;DHT22;9330;52.210;21.174;2024-03-02T03:13:34;6.00;1.00
18408;DHT22;9330;52.210;21.174;2024-03-02T03:16:01;5.90;99.90
18408;DHT22;9330;52.210;21.174;2024-03-02T03:18:29;5.90;1.00
18408;DHT22;9330;52.210;21.174;2024-03-02T03:20:56;5.90;1.00
18408;DHT22;9330;52.210;21.174;2024-03-02T03:23:23;5.90;1.00
18408;DHT22;9330;52.210;21.174;2024-03-02T03:25:51;5.80;1.00
18408;DHT22;9330;52.210;21.174;2024-03-02T03:28:18;5.80;1.00
18408;DHT22;9330;52.210;21.174;2024-03-02T03:30:47;5.80;1.00
18408;DHT22;9330;52.210;21.174;2024-03-02T03:33:13;5.80;1.00
18408;DHT22;9330;52.210;21.174;2024-03-02T03:35:40;5.80;1.00
18408;DHT22;9330;52.210;21.174;2024-03-02T03:38:07;5.70;1.00
18408;DHT22;9330;52.210;21.174;2024-03-02T03:40:34;5.70;1.00
18408;DHT22;9330;52.210;21.174;2024-03-02T03:43:01;5.80;1.00
18408;DHT22;9330;52.210;21.174;2024-03-02T03:45:28;5.80;1.00
18408;DHT22;9330;52.210;21.174;2024-03-02T03:47:57;5.70;1.00
18408;DHT22;9330;52.210;21.174;2024-03-02T03:50:24;5.80;1.00
18408;DHT22;9330;52.210;21.174;2024-03-02T03:52:51;5.70;1.00
18408;DHT22;9330;52.210;21.174;2024-03-02T03:55:18;5.70;1.00
18408;DHT22;9330;52.210;21.174;2024-03-02T03:57:45;5.70;1.00
18408;DHT22;9330;52.210;21.174;2024-03-02T04:00:12;5.70;1.00
18408;DHT22;9330;52.210;21.174;2024-03-02T04:02:39;5.70;1.00
18408;DHT22;9330;52.210;21.174;2024-03-02T04:05:08;5.70;1.00
18408;DHT22;9330;52.210;21.174;2024-03-02T04:07:36;5.70;1.00
18408;DHT22;9330;52.210;21.174;2024-03-02T04:10:09;5.60;1.00
18408;DHT22;9330;52.210;21.174;2024-03-02T04:12:37;5.70;1.00
18408;DHT22;9330;52.210;21.174;2024-03-02T04:15:05;5.60;1.00
18408;DHT22;9330;52.210;21.174;2024-03-02T04:17:33;5.60;1.00
18408;DHT22;9330;52.210;21.174;2024-03-02T04:20:01;5.70;1.00
18408;DHT22;9330;52.210;21.174;2024-03-02T04:22:33;5.70;1.00
18408;DHT22;9330;52.210;21.174;2024-03-02T04:25:00;5.60;1.00
18408;DHT22;9330;52.210;21.174;2024-03-02T04:27:27;5.60;1.00
18408;DHT22;9330;52.210;21.174;2024-03-02T04:29:54;5.60;27.80
18408;DHT22;9330;52.210;21.174;2024-03-02T04:32:21;5.70;1.00
18408;DHT22;9330;52.210;21.174;2024-03-02T04:34:48;5.70;1.00
18408;DHT22;9330;52.210;21.174;2024-03-02T04:37:15;5.60;1.00
18408;DHT22;9330;52.210;21.174;2024-03-02T04:39:43;5.60;8.80
18408;DHT22;9330;52.210;21.174;2024-03-02T04:42:10;5.60;8.50
18408;DHT22;9330;52.210;21.174;2024-03-02T04:44:37;5.60;41.20
18408;DHT22;9330;52.210;21.174;2024-03-02T04:47:04;5.60;57.00
18408;DHT22;9330;52.210;21.174;2024-03-02T04:49:31;5.60;50.20
18408;DHT22;9330;52.210;21.174;2024-03-02T04:51:58;5.60;49.30
18408;DHT22;9330;52.210;21.174;2024-03-02T04:54:25;5.60;40.10
18408;DHT22;9330;52.210;21.174;2024-03-02T04:56:53;5.60;62.60
18408;DHT22;9330;52.210;21.174;2024-03-02T04:59:20;5.60;99.90
18408;DHT22;9330;52.210;21.174;2024-03-02T05:01:47;5.60;99.90
18408;DHT22;9330;52.210;21.174;2024-03-02T05:04:14;5.60;99.90
18408;DHT22;9330;52.210;21.174;2024-03-02T05:06:41;5.60;99.90
18408;DHT22;9330;52.210;21.174;2024-03-02T05:09:08;5.60;99.90
18408;DHT22;9330;52.210;21.174;2024-03-02T05:11:35;5.60;99.90
18408;DHT22;9330;52.210;21.174;2024-03-02T05:14:37;5.60;99.90
18408;DHT22;9330;52.210;21.174;2024-03-02T05:17:04;5.70;99.90
18408;DHT22;9330;52.210;21.174;2024-03-02T05:19:31;5.60;99.90
18408;DHT22;9330;52.210;21.174;2024-03-02T05:21:58;5.60;99.90
18408;DHT22;9330;52.210;21.174;2024-03-02T05:24:25;5.60;99.90
18408;DHT22;9330;52.210;21.174;2024-03-02T05:26:53;5.60;99.90
18408;DHT22;9330;52.210;21.174;2024-03-02T05:29:20;5.60;99.90
18408;DHT22;9330;52.210;21.174;2024-03-02T05:31:49;5.60;99.90
18408;DHT22;9330;52.210;21.174;2024-03-02T05:34:16;5.70;99.90
18408;DHT22;9330;52.210;21.174;2024-03-02T05:36:44;5.60;99.90
18408;DHT22;9330;52.210;21.174;2024-03-02T05:39:11;5.70;99.90
18408;DHT22;9330;52.210;21.174;2024-03-02T05:41:37;5.70;99.90
18408;DHT22;9330;52.210;21.174;2024-03-02T05:44:04;5.60;99.90
18408;DHT22;9330;52.210;21.174;2024-03-02T05:46:31;5.70;99.90
18408;DHT22;9330;52.210;21.174;2024-03-02T05:49:00;5.70;99.90
18408;DHT22;9330;52.210;21.174;2024-03-02T05:51:27;5.70;99.90
18408;DHT22;9330;52.210;21.174;2024-03-02T05:53:54;5.80;99.90
18408;DHT22;9330;52.210;21.174;2024-03-02T05:56:21;5.80;99.90
18408;DHT22;9330;52.210;21.174;2024-03-02T05:58:48;5.80;99.90
18408;DHT22;9330;52.210;21.174;2024-03-02T06:01:33;5.80;99.90
18408;DHT22;9330;52.210;21.174;2024-03-02T06:04:01;5.80;99.90
18408;DHT22;9330;52.210;21.174;2024-03-02T06:06:28;5.90;99.90
18408;DHT22;9330;52.210;21.174;2024-03-02T06:08:55;5.90;99.90
18408;DHT22;9330;52.210;21.174;2024-03-02T06:11:22;5.90;56.70
18408;DHT22;9330;52.210;21.174;2024-03-02T06:13:49;5.90;26.20
18408;DHT22;9330;52.210;21.174;2024-03-02T06:16:16;5.90;43.10
18408;DHT22;9330;52.210;21.174;2024-03-02T06:18:43;5.90;86.60
18408;DHT22;9330;52.210;21.174;2024-03-02T06:21:11;5.90;16.50
18408;DHT22;9330;52.210;21.174;2024-03-02T06:23:38;6.00;17.30
18408;DHT22;9330;52.210;21.174;2024-03-02T06:26:05;6.00;9.70
18408;DHT22;9330;52.210;21.174;2024-03-02T06:28:32;6.10;28.30
18408;DHT22;9330;52.210;21.174;2024-03-02T06:30:59;6.10;27.60
18408;DHT22;9330;52.210;21.174;2024-03-02T06:33:26;6.00;9.50
18408;DHT22;9330;52.210;21.174;2024-03-02T06:35:54;6.10;1.00
18408;DHT22;9330;52.210;21.174;2024-03-02T06:38:22;6.10;1.00
18408;DHT22;9330;52.210;21.174;2024-03-02T06:40:49;6.10;1.00
18408;DHT22;9330;52.210;21.174;2024-03-02T06:43:16;6.10;1.00
18408;DHT22;9330;52.210;21.174;2024-03-02T06:45:43;6.20;1.00
18408;DHT22;9330;52.210;21.174;2024-03-02T06:48:10;6.20;1.00
18408;DHT22;9330;52.210;21.174;2024-03-02T06:50:36;6.30;1.00
18408;DHT22;9330;52.210;21.174;2024-03-02T06:53:04;6.30;1.00
18408;DHT22;9330;52.210;21.174;2024-03-02T06:55:32;6.30;1.00
18408;DHT22;9330;52.210;21.174;2024-03-02T06:57:59;6.30;1.00
18408;DHT22;9330;52.210;21.174;2024-03-02T07:00:26;6.30;1.00
18408;DHT22;9330;52.210;21.174;2024-03-02T07:02:53;6.30;1.00
18408;DHT22;9330;52.210;21.174;2024-03-02T07:05:19;6.30;1.00
18408;DHT22;9330;52.210;21.174;2024-03-02T07:07:46;6.30;1.00
18408;DHT22;9330;52.210;21.174;2024-03-02T07:10:14;6.40;1.00
18408;DHT22;9330;52.210;21.174;2024-03-02T07:12:42;6.40;1.00
18408;DHT22;9330;52.210;21.174;2024-03-02T07:15:10;6.40;1.00
18408;DHT22;9330;52.210;21.174;2024-03-02T07:18:08;6.40;1.00
18408;DHT22;9330;52.210;21.174;2024-03-02T07:20:35;6.40;99.90
18408;DHT22;9330;52.210;21.174;2024-03-02T07:23:04;6.40;1.00
18408;DHT22;9330;52.210;21.174;2024-03-02T07:25:31;6.40;99.90
18408;DHT22;9330;52.210;21.174;2024-03-02T07:27:59;6.50;99.90
18408;DHT22;9330;52.210;21.174;2024-03-02T07:30:26;6.50;99.90
18408;DHT22;9330;52.210;21.174;2024-03-02T07:32:53;6.60;99.90
18408;DHT22;9330;52.210;21.174;2024-03-02T07:35:20;6.60;99.90
18408;DHT22;9330;52.210;21.174;2024-03-02T07:37:48;6.60;99.90
18408;DHT22;9330;52.210;21.174;2024-03-02T07:40:15;6.70;93.40
18408;DHT22;9330;52.210;21.174;2024-03-02T07:42:41;6.70;1.00
18408;DHT22;9330;52.210;21.174;2024-03-02T07:45:10;6.80;1.00
18408;DHT22;9330;52.210;21.174;2024-03-02T07:47:37;6.80;1.00
18408;DHT22;9330;52.210;21.174;2024-03-02T07:50:05;6.80;1.00
18408;DHT22;9330;52.210;21.174;2024-03-02T07:52:32;6.90;1.00
18408;DHT22;9330;52.210;21.174;2024-03-02T07:55:00;6.90;1.00
18408;DHT22;9330;52.210;21.174;2024-03-02T07:57:26;6.90;1.00
18408;DHT22;9330;52.210;21.174;2024-03-02T07:59:53;7.00;1.00
18408;DHT22;9330;52.210;21.174;2024-03-02T08:02:22;7.00;99.90
18408;DHT22;9330;52.210;21.174;2024-03-02T08:04:49;7.00;99.90
18408;DHT22;9330;52.210;21.174;2024-03-02T08:07:16;7.00;99.90
18408;DHT22;9330;52.210;21.174;2024-03-02T08:09:43;7.00;99.90
18408;DHT22;9330;52.210;21.174;2024-03-02T08:12:09;7.10;99.90
18408;DHT22;9330;52.210;21.174;2024-03-02T08:14:36;7.10;99.90
18408;DHT22;9330;52.210;21.174;2024-03-02T08:17:03;7.20;1.00
18408;DHT22;9330;52.210;21.174;2024-03-02T08:19:36;7.20;1.00
18408;DHT22;9330;52.210;21.174;2024-03-02T08:22:03;7.20;1.00
18408;DHT22;9330;52.210;21.174;2024-03-02T08:24:30;7.20;1.00
18408;DHT22;9330;52.210;21.174;2024-03-02T08:26:58;7.20;1.00
18408;DHT22;9330;52.210;21.174;2024-03-02T08:29:25;7.30;1.00
18408;DHT22;9330;52.210;21.174;2024-03-02T08:31:53;7.30;1.00
18408;DHT22;9330;52.210;21.174;2024-03-02T08:34:20;7.40;1.00
18408;DHT22;9330;52.210;21.174;2024-03-02T08:36:48;7.40;94.90
18408;DHT22;9330;52.210;21.174;2024-03-02T08:39:15;7.40;99.90
18408;DHT22;9330;52.210;21.174;2024-03-02T08:41:43;7.40;78.90
18408;DHT22;9330;52.210;21.174;2024-03-02T08:44:11;7.50;1.00
18408;DHT22;9330;52.210;21.174;2024-03-02T08:46:38;7.50;1.00
18408;DHT22;9330;52.210;21.174;2024-03-02T08:49:06;7.50;1.00
18408;DHT22;9330;52.210;21.174;2024-03-02T08:51:32;7.50;1.00
18408;DHT22;9330;52.210;21.174;2024-03-02T08:54:01;7.60;1.00
18408;DHT22;9330;52.210;21.174;2024-03-02T08:56:30;7.60;1.00
18408;DHT22;9330;52.210;21.174;2024-03-02T08:58:57;7.50;1.00
18408;DHT22;9330;52.210;21.174;2024-03-02T09:01:24;7.60;1.00
18408;DHT22;9330;52.210;21.174;2024-03-02T09:03:51;7.60;1.00
18408;DHT22;9330;52.210;21.174;2024-03-02T09:06:18;7.60;1.00
18408;DHT22;9330;52.210;21.174;2024-03-02T09:08:45;7.60;1.00
18408;DHT22;9330;52.210;21.174;2024-03-02T09:11:15;7.60;1.00
18408;DHT22;9330;52.210;21.174;2024-03-02T09:13:42;7.60;1.00
18408;DHT22;9330;52.210;21.174;2024-03-02T09:16:09;7.70;1.00
18408;DHT22;9330;52.210;21.174;2024-03-02T09:18:37;7.70;1.00
18408;DHT22;9330;52.210;21.174;2024-03-02T09:21:04;7.70;1.00
18408;DHT22;9330;52.210;21.174;2024-03-02T09:23:32;7.70;99.90
18408;DHT22;9330;52.210;21.174;2024-03-02T09:25:59;7.70;99.90
18408;DHT22;9330;52.210;21.174;2024-03-02T09:28:27;7.70;1.00
18408;DHT22;9330;52.210;21.174;2024-03-02T09:30:54;7.70;99.90
18408;DHT22;9330;52.210;21.174;2024-03-02T09:33:21;7.70;99.90
18408;DHT22;9330;52.210;21.174;2024-03-02T09:35:49;7.80;99.90
18408;DHT22;9330;52.210;21.174;2024-03-02T09:38:16;7.80;99.90
18408;DHT22;9330;52.210;21.174;2024-03-02T09:40:43;7.80;1.00
18408;DHT22;9330;52.210;21.174;2024-03-02T09:43:10;7.90;99.90
18408;DHT22;9330;52.210;21.174;2024-03-02T09:45:39;8.00;99.90
18408;DHT22;9330;52.210;21.174;2024-03-02T09:48:07;8.00;1.00
18408;DHT22;9330;52.210;21.174;2024-03-02T09:50:34;8.00;1.00
18408;DHT22;9330;52.210;21.174;2024-03-02T09:53:01;8.00;1.00
18408;DHT22;9330;52.210;21.174;2024-03-02T09:55:28;8.10;1.00
18408;DHT22;9330;52.210;21.174;2024-03-02T09:57:55;8.20;1.00
18408;DHT22;9330;52.210;21.174;2024-03-02T10:00:22;8.20;1.00
18408;DHT22;9330;52.210;21.174;2024-03-02T10:02:51;8.30;1.00
18408;DHT22;9330;52.210;21.174;2024-03-02T10:05:25;8.30;99.90
18408;DHT22;9330;52.210;21.174;2024-03-02T10:07:59;8.40;1.00
18408;DHT22;9330;52.210;21.174;2024-03-02T10:10:34;8.40;99.90
18408;DHT22;9330;52.210;21.174;2024-03-02T10:13:04;8.40;1.20
18408;DHT22;9330;52.210;21.174;2024-03-02T10:15:31;8.50;1.00
18408;DHT22;9330;52.210;21.174;2024-03-02T10:18:00;8.50;1.00
18408;DHT22;9330;52.210;21.174;2024-03-02T10:20:27;8.50;1.00
18408;DHT22;9330;52.210;21.174;2024-03-02T10:22:55;8.60;1.00
18408;DHT22;9330;52.210;21.174;2024-03-02T10:25:29;8.60;1.00
18408;DHT22;9330;52.210;21.174;2024-03-02T10:27:57;8.70;1.00
18408;DHT22;9330;52.210;21.174;2024-03-02T10:30:25;8.70;1.00
18408;DHT22;9330;52.210;21.174;2024-03-02T10:32:53;8.70;99.90
18408;DHT22;9330;52.210;21.174;2024-03-02T10:35:22;8.80;99.90
18408;DHT22;9330;52.210;21.174;2024-03-02T10:37:52;8.90;1.00
18408;DHT22;9330;52.210;21.174;2024-03-02T10:40:21;8.80;99.90
18408;DHT22;9330;52.210;21.174;2024-03-02T10:42:50;9.00;99.90
18408;DHT22;9330;52.210;21.174;2024-03-02T10:45:20;9.00;1.00
18408;DHT22;9330;52.210;21.174;2024-03-02T10:47:47;9.00;1.00
18408;DHT22;9330;52.210;21.174;2024-03-02T10:50:14;9.10;99.90
18408;DHT22;9330;52.210;21.174;2024-03-02T10:52:43;9.20;99.90
18408;DHT22;9330;52.210;21.174;2024-03-02T10:55:10;9.30;1.00
18408;DHT22;9330;52.210;21.174;2024-03-02T10:57:41;9.30;1.00
18408;DHT22;9330;52.210;21.174;2024-03-02T11:00:12;9.40;1.00
18408;DHT22;9330;52.210;21.174;2024-03-02T11:02:45;9.50;1.00
18408;DHT22;9330;52.210;21.174;2024-03-02T11:05:19;9.60;1.00
18408;DHT22;9330;52.210;21.174;2024-03-02T11:07:50;9.50;1.00
18408;DHT22;9330;52.210;21.174;2024-03-02T11:10:17;9.60;1.00
18408;DHT22;9330;52.210;21.174;2024-03-02T11:12:57;9.60;1.00
18408;DHT22;9330;52.210;21.174;2024-03-02T11:15:27;9.70;99.90
18408;DHT22;9330;52.210;21.174;2024-03-02T11:17:55;9.70;99.90
18408;DHT22;9330;52.210;21.174;2024-03-02T11:20:22;9.80;99.90
18408;DHT22;9330;52.210;21.174;2024-03-02T11:22:51;9.90;99.90
18408;DHT22;9330;52.210;21.174;2024-03-02T11:25:23;9.90;99.90
18408;DHT22;9330;52.210;21.174;2024-03-02T11:28:01;9.80;1.00
18408;DHT22;9330;52.210;21.174;2024-03-02T11:30:50;9.90;23.10
18408;DHT22;9330;52.210;21.174;2024-03-02T11:33:25;9.90;1.00
18408;DHT22;9330;52.210;21.174;2024-03-02T11:35:53;9.90;1.00
18408;DHT22;9330;52.210;21.174;2024-03-02T11:38:21;10.00;99.90
18408;DHT22;9330;52.210;21.174;2024-03-02T11:40:50;10.00;66.40
18408;DHT22;9330;52.210;21.174;2024-03-02T11:43:17;10.10;1.00
18408;DHT22;9330;52.210;21.174;2024-03-02T11:45:44;10.10;1.00
18408;DHT22;9330;52.210;21.174;2024-03-02T11:48:13;10.10;1.00
18408;DHT22;9330;52.210;21.174;2024-03-02T11:50:42;10.10;1.00
18408;DHT22;9330;52.210;21.174;2024-03-02T11:53:10;10.10;1.00
18408;DHT22;9330;52.210;21.174;2024-03-02T11:55:40;10.20;1.00
18408;DHT22;9330;52.210;21.174;2024-03-02T11:58:07;10.20;1.00
18408;DHT22;9330;52.210;21.174;2024-03-02T12:00:34;10.20;1.00
18408;DHT22;9330;52.210;21.174;2024-03-02T12:03:03;10.20;1.00
18408;DHT22;9330;52.210;21.174;2024-03-02T12:05:30;10.20;1.00
18408;DHT22;9330;52.210;21.174;2024-03-02T12:07:57;10.20;1.00
18408;DHT22;9330;52.210;21.174;2024-03-02T12:10:25;10.20;1.00
18408;DHT22;9330;52.210;21.174;2024-03-02T12:12:57;10.30;1.00
18408;DHT22;9330;52.210;21.174;2024-03-02T12:15:25;10.30;1.00
18408;DHT22;9330;52.210;21.174;2024-03-02T12:17:54;10.40;1.00
18408;DHT22;9330;52.210;21.174;2024-03-02T12:20:21;10.40;1.00
18408;DHT22;9330;52.210;21.174;2024-03-02T12:22:50;10.40;1.00
18408;DHT22;9330;52.210;21.174;2024-03-02T12:25:18;10.40;1.00
18408;DHT22;9330;52.210;21.174;2024-03-02T12:27:45;10.60;1.00
18408;DHT22;9330;52.210;21.174;2024-03-02T12:30:14;10.60;1.00
18408;DHT22;9330;52.210;21.174;2024-03-02T12:32:42;10.60;99.90
18408;DHT22;9330;52.210;21.174;2024-03-02T12:35:12;10.60;99.90
18408;DHT22;9330;52.210;21.174;2024-03-02T12:37:44;10.60;99.90
18408;DHT22;9330;52.210;21.174;2024-03-02T12:40:12;10.60;99.90
18408;DHT22;9330;52.210;21.174;2024-03-02T12:42:39;10.70;99.90
18408;DHT22;9330;52.210;21.174;2024-03-02T12:45:07;10.70;99.90
18408;DHT22;9330;52.210;21.174;2024-03-02T12:47:36;10.70;1.00
18408;DHT22;9330;52.210;21.174;2024-03-02T12:50:04;10.80;99.90
18408;DHT22;9330;52.210;21.174;2024-03-02T12:52:32;10.70;99.90
18408;DHT22;9330;52.210;21.174;2024-03-02T12:54:59;10.70;99.90
18408;DHT22;9330;52.210;21.174;2024-03-02T12:57:29;10.70;99.90
18408;DHT22;9330;52.210;21.174;2024-03-02T12:59:59;10.70;98.20
18408;DHT22;9330;52.210;21.174;2024-03-02T13:02:28;10.60;99.90
18408;DHT22;9330;52.210;21.174;2024-03-02T13:04:58;10.60;1.00
18408;DHT22;9330;52.210;21.174;2024-03-02T13:07:25;10.60;1.00
18408;DHT22;9330;52.210;21.174;2024-03-02T13:09:52;10.60;1.00
18408;DHT22;9330;52.210;21.174;2024-03-02T13:12:21;10.60;1.00
18408;DHT22;9330;52.210;21.174;2024-03-02T13:14:48;10.60;1.00
18408;DHT22;9330;52.210;21.174;2024-03-02T13:17:17;10.50;1.00
18408;DHT22;9330;52.210;21.174;2024-03-02T13:19:51;10.50;1.00
18408;DHT22;9330;52.210;21.174;2024-03-02T13:22:21;10.60;99.90
18408;DHT22;9330;52.210;21.174;2024-03-02T13:24:48;10.50;99.90
18408;DHT22;9330;52.210;21.174;2024-03-02T13:27:15;10.50;1.00
18408;DHT22;9330;52.210;21.174;2024-03-02T13:29:45;10.40;99.90
18408;DHT22;9330;52.210;21.174;2024-03-02T13:32:12;10.40;99.90
18408;DHT22;9330;52.210;21.174;2024-03-02T13:34:38;10.30;1.00
18408;DHT22;9330;52.210;21.174;2024-03-02T13:37:05;10.20;1.00
18408;DHT22;9330;52.210;21.174;2024-03-02T13:39:34;10.20;1.00
18408;DHT22;9330;52.210;21.174;2024-03-02T13:42:06;10.10;1.00
18408;DHT22;9330;52.210;21.174;2024-03-02T13:44:34;10.10;1.00
18408;DHT22;9330;52.210;21.174;2024-03-02T13:47:01;10.10;1.00
18408;DHT22;9330;52.210;21.174;2024-03-02T13:49:28;10.10;1.00
18408;DHT22;9330;52.210;21.174;2024-03-02T13:51:59;10.00;1.00
18408;DHT22;9330;52.210;21.174;2024-03-02T13:54:29;10.00;1.00
18408;DHT22;9330;52.210;21.174;2024-03-02T13:56:58;10.00;1.00
18408;DHT22;9330;52.210;21.174;2024-03-02T13:59:25;9.90;1.00
18408;DHT22;9330;52.210;21.174;2024-03-02T14:01:53;9.90;1.00
18408;DHT22;9330;52.210;21.174;2024-03-02T14:04:20;9.90;1.00
18408;DHT22;9330;52.210;21.174;2024-03-02T14:06:47;9.70;1.00
18408;DHT22;9330;52.210;21.174;2024-03-02T14:09:13;9.80;1.00
18408;DHT22;9330;52.210;21.174;2024-03-02T14:11:40;9.80;1.00
18408;DHT22;9330;52.210;21.174;2024-03-02T14:14:09;9.70;1.00
18408;DHT22;9330;52.210;21.174;2024-03-02T14:16:36;9.70;1.00
18408;DHT22;9330;52.210;21.174;2024-03-02T14:19:03;9.70;22.50
18408;DHT22;9330;52.210;21.174;2024-03-02T14:21:30;9.60;6.90
18408;DHT22;9330;52.210;21.174;2024-03-02T14:23:57;9.60;37.30
18408;DHT22;9330;52.210;21.174;2024-03-02T14:26:24;9.60;99.90
18408;DHT22;9330;52.210;21.174;2024-03-02T14:28:51;9.60;99.90
18408;DHT22;9330;52.210;21.174;2024-03-02T14:31:20;9.50;93.90
18408;DHT22;9330;52.210;21.174;2024-03-02T14:33:47;9.40;99.90
18408;DHT22;9330;52.210;21.174;2024-03-02T14:36:14;9.50;99.90
18408;DHT22;9330;52.210;21.174;2024-03-02T14:38:41;9.40;99.90
18408;DHT22;9330;52.210;21.174;2024-03-02T14:41:08;9.40;99.90
18408;DHT22;9330;52.210;21.174;2024-03-02T14:43:35;9.40;99.90
18408;DHT22;9330;52.210;21.174;2024-03-02T14:46:03;9.40;99.90
18408;DHT22;9330;52.210;21.174;2024-03-02T14:48:32;9.30;1.00
18408;DHT22;9330;52.210;21.174;2024-03-02T14:50:59;9.30;1.00
18408;DHT22;9330;52.210;21.174;2024-03-02T14:53:26;9.30;1.00
18408;DHT22;9330;52.210;21.174;2024-03-02T14:55:53;9.20;1.00
18408;DHT22;9330;52.210;21.174;2024-03-02T14:58:20;9.20;1.00
18408;DHT22;9330;52.210;21.174;2024-03-02T15:00:47;9.20;1.00
18408;DHT22;9330;52.210;21.174;2024-03-02T15:03:14;9.20;1.00
18408;DHT22;9330;52.210;21.174;2024-03-02T15:05:43;9.20;1.00
18408;DHT22;9330;52.210;21.174;2024-03-02T15:08:11;9.10;1.00
18408;DHT22;9330;52.210;21.174;2024-03-02T15:10:38;9.10;1.00
18408;DHT22;9330;52.210;21.174;2024-03-02T15:13:05;9.10;1.00
18408;DHT22;9330;52.210;21.174;2024-03-02T15:15:31;9.00;35.80
18408;DHT22;9330;52.210;21.174;2024-03-02T15:17:59;9.00;99.90
18408;DHT22;9330;52.210;21.174;2024-03-02T15:20:26;9.00;36.50
18408;DHT22;9330;52.210;21.174;2024-03-02T15:22:54;9.00;99.90
18408;DHT22;9330;52.210;21.174;2024-03-02T15:25:21;8.90;1.00
18408;DHT22;9330;52.210;21.174;2024-03-02T15:27:48;9.00;26.00
18408;DHT22;9330;52.210;21.174;2024-03-02T15:30:15;8.90;90.70
18408;DHT22;9330;52.210;21.174;2024-03-02T15:32:43;8.90;65.20
18408;DHT22;9330;52.210;21.174;2024-03-02T15:35:10;8.90;99.90
18408;DHT22;9330;52.210;21.174;2024-03-02T15:37:37;8.90;99.90
18408;DHT22;9330;52.210;21.174;2024-03-02T15:40:07;8.80;99.90
18408;DHT22;9330;52.210;21.174;2024-03-02T15:42:34;8.80;99.90
18408;DHT22;9330;52.210;21.174;2024-03-02T15:45:01;8.80;99.90
18408;DHT22;9330;52.210;21.174;2024-03-02T15:47:28;8.70;1.00
18408;DHT22;9330;52.210;21.174;2024-03-02T15:49:55;8.70;99.90
18408;DHT22;9330;52.210;21.174;2024-03-02T15:52:22;8.70;1.00
18408;DHT22;9330;52.210;21.174;2024-03-02T15:54:49;8.70;1.00
18408;DHT22;9330;52.210;21.174;2024-03-02T15:57:18;8.60;1.00